createdAt,value
2019-02-06T00:03:24.912Z,92.46
2019-02-06T00:08:30.003Z,91.87
2019-02-06T00:13:35.276Z,92.03
2019-02-06T00:18:40.361Z,91.90
2019-02-06T00:23:45.464Z,91.70
2019-02-06T00:28:50.893Z,91.65
2019-02-06T00:33:55.946Z,91.39
2019-02-06T00:39:00.997Z,91.13
2019-02-06T00:44:08.064Z,90.50
2019-02-06T00:49:13.262Z,90.56
2019-02-06T00:54:20.546Z,90.78
2019-02-06T00:59:25.823Z,90.65
2019-02-06T01:04:30.841Z,90.67
2019-02-06T01:09:35.937Z,89.98
2019-02-06T01:14:41.075Z,90.31
2019-02-06T01:19:46.215Z,89.88
2019-02-06T01:24:51.491Z,89.76
2019-02-06T01:29:56.578Z,89.34
2019-02-06T01:35:01.699Z,89.89
2019-02-06T01:40:08.953Z,89.72
2019-02-06T01:45:15.638Z,89.28
2019-02-06T01:50:20.783Z,89.42
2019-02-06T01:55:26.152Z,89.15
2019-02-06T02:00:31.829Z,89.08
2019-02-06T02:05:37.972Z,89.06
2019-02-06T02:10:43.213Z,89.55
2019-02-06T02:15:48.365Z,90.33
2019-02-06T02:20:54.611Z,90.09
2019-02-06T02:25:59.672Z,90.70
2019-02-06T02:31:04.803Z,90.94
2019-02-06T02:36:15.637Z,90.94
2019-02-06T02:41:17.805Z,91.27
2019-02-06T02:46:22.772Z,91.32
2019-02-06T02:51:28.487Z,91.51
2019-02-06T02:56:33.619Z,91.90
2019-02-06T03:01:50.915Z,91.64
2019-02-06T03:07:05.358Z,91.66
2019-02-06T03:12:10.799Z,91.33
2019-02-06T03:17:15.749Z,91.51
2019-02-06T03:22:22.003Z,91.54
2019-02-06T03:27:27.687Z,91.37
2019-02-06T03:32:32.801Z,91.47
2019-02-06T03:37:38.227Z,91.13
2019-02-06T03:42:43.246Z,90.77
2019-02-06T03:47:48.615Z,90.70
2019-02-06T03:52:56.833Z,90.80
2019-02-06T03:58:01.996Z,90.75
2019-02-06T04:03:07.127Z,90.65
2019-02-06T04:08:12.334Z,90.32
2019-02-06T04:13:17.676Z,90.68
2019-02-06T04:18:23.050Z,90.73
2019-02-06T04:23:28.393Z,91.23
2019-02-06T04:28:33.403Z,91.39
2019-02-06T04:33:39.462Z,91.51
2019-02-06T04:38:44.517Z,91.49
2019-02-06T04:43:49.652Z,91.49
2019-02-06T04:48:54.942Z,91.55
2019-02-06T04:54:01.002Z,91.00
2019-02-06T04:59:06.062Z,90.94
2019-02-06T05:04:12.772Z,90.72
2019-02-06T05:09:20.330Z,91.09
2019-02-06T05:14:25.459Z,90.86
2019-02-06T05:19:30.775Z,90.75
2019-02-06T05:24:37.438Z,90.94
2019-02-06T05:29:45.138Z,90.94
2019-02-06T05:34:50.403Z,90.73
2019-02-06T05:39:55.704Z,90.44
2019-02-06T05:45:00.978Z,90.29
2019-02-06T05:50:13.522Z,90.11
2019-02-06T05:55:19.885Z,90.22
2019-02-06T06:00:31.376Z,90.43
2019-02-06T06:05:36.558Z,90.28
2019-02-06T06:10:42.067Z,90.09
2019-02-06T06:15:47.412Z,90.13
2019-02-06T06:20:54.655Z,90.07
2019-02-06T06:25:59.715Z,90.11
2019-02-06T06:31:04.930Z,90.25
2019-02-06T06:36:10.532Z,90.48
2019-02-06T06:41:15.971Z,90.33
2019-02-06T06:46:21.469Z,90.40
2019-02-06T06:51:26.567Z,90.17
2019-02-06T06:56:31.848Z,90.03
2019-02-06T07:01:37.416Z,90.28
2019-02-06T07:06:42.596Z,89.96
2019-02-06T07:11:48.722Z,89.74
2019-02-06T07:16:53.982Z,89.62
2019-02-06T07:21:59.588Z,89.28
2019-02-06T07:27:05.780Z,89.11
2019-02-06T07:32:16.354Z,88.72
2019-02-06T07:37:22.054Z,88.88
2019-02-06T07:42:27.496Z,89.12
2019-02-06T07:47:41.286Z,88.90
2019-02-06T07:52:52.716Z,88.91
2019-02-06T07:58:05.050Z,89.14
2019-02-06T08:03:22.554Z,89.21
2019-02-06T08:08:36.055Z,89.12
2019-02-06T08:13:38.573Z,88.75
2019-02-06T08:18:43.806Z,88.41
2019-02-06T08:23:52.477Z,87.98
2019-02-06T08:29:01.282Z,86.61
2019-02-06T08:34:12.060Z,86.35
2019-02-06T08:39:20.356Z,86.58
2019-02-06T08:44:26.280Z,86.40
2019-02-06T08:49:31.462Z,86.42
2019-02-06T08:54:45.168Z,85.93
2019-02-06T08:59:52.277Z,85.93
2019-02-06T09:04:58.877Z,85.29
2019-02-06T09:10:08.099Z,84.47
2019-02-06T09:15:17.158Z,83.99
2019-02-06T09:20:24.520Z,83.45
2019-02-06T09:25:40.806Z,82.92
2019-02-06T09:30:46.186Z,82.13
2019-02-06T09:35:52.744Z,81.87
2019-02-06T09:41:04.145Z,81.37
2019-02-06T09:46:17.795Z,81.08
2019-02-06T09:51:46.137Z,80.76
2019-02-06T09:57:09.508Z,80.63
2019-02-06T10:02:18.429Z,80.19
2019-02-06T10:07:24.178Z,79.90
2019-02-06T10:12:35.371Z,79.35
2019-02-06T10:17:40.871Z,79.20
2019-02-06T10:22:52.945Z,78.17
2019-02-06T10:27:58.810Z,77.44
2019-02-06T10:33:19.267Z,76.60
2019-02-06T10:38:44.052Z,74.42
2019-02-06T10:43:53.842Z,68.22
2019-02-06T10:49:04.927Z,66.43
2019-02-06T10:54:14.635Z,65.82
2019-02-06T10:59:23.773Z,64.66
2019-02-06T11:04:31.188Z,62.17
2019-02-06T11:09:45.993Z,54.72
2019-02-06T11:14:46.502Z,51.99
2019-02-06T11:19:51.833Z,49.33
2019-02-06T11:25:04.951Z,46.06
2019-02-06T11:30:13.815Z,42.04
2019-02-06T11:35:30.968Z,44.21
2019-02-06T11:40:58.087Z,44.78
2019-02-06T11:46:11.035Z,43.83
2019-02-06T11:51:16.968Z,43.24
2019-02-06T11:56:22.775Z,41.79
2019-02-06T12:01:32.298Z,42.85
2019-02-06T12:06:37.546Z,41.84
2019-02-06T12:11:48.416Z,41.69
2019-02-06T12:16:55.734Z,41.57
2019-02-06T12:22:01.166Z,39.95
2019-02-06T12:27:07.125Z,40.16
2019-02-06T12:32:24.167Z,40.62
2019-02-06T12:37:32.230Z,42.63
2019-02-06T12:42:38.402Z,44.14
2019-02-06T12:47:44.496Z,43.70
2019-02-06T12:52:50.092Z,42.36
2019-02-06T12:57:57.024Z,42.00
2019-02-06T13:03:02.644Z,42.71
2019-02-06T13:08:09.337Z,45.16
2019-02-06T13:13:14.563Z,44.51
2019-02-06T13:18:24.878Z,43.30
2019-02-06T13:23:31.110Z,44.72
2019-02-06T13:28:36.316Z,44.79
2019-02-06T13:33:44.364Z,43.94
2019-02-06T13:38:49.856Z,43.94
2019-02-06T13:43:57.334Z,42.88
2019-02-06T13:49:02.792Z,41.53
2019-02-06T13:54:07.764Z,41.82
2019-02-06T13:59:12.204Z,41.85
2019-02-06T14:04:17.426Z,44.05
2019-02-06T14:09:26.880Z,44.35
2019-02-06T14:14:34.484Z,47.60
2019-02-06T14:19:40.253Z,49.32
2019-02-06T14:25:05.668Z,53.92
2019-02-06T14:30:58.251Z,57.33
2019-02-06T14:36:24.360Z,59.18
2019-02-06T14:41:50.956Z,61.89
2019-02-06T14:47:28.660Z,61.91
2019-02-06T14:53:19.914Z,63.17
2019-02-06T14:59:07.525Z,63.48
2019-02-06T15:04:36.076Z,60.74
2019-02-06T15:10:11.185Z,61.02
2019-02-06T15:15:30.299Z,60.38
2019-02-06T15:20:57.883Z,59.87
2019-02-06T15:26:49.291Z,60.96
2019-02-06T15:32:55.698Z,59.67
2019-02-06T15:38:44.985Z,60.06
2019-02-06T15:44:06.336Z,60.30
2019-02-06T15:49:46.574Z,59.61
2019-02-06T15:55:41.162Z,61.40
2019-02-06T16:01:42.478Z,61.84
2019-02-06T16:07:20.881Z,61.62
2019-02-06T16:12:49.655Z,63.56
2019-02-06T16:18:09.393Z,63.79
2019-02-06T16:23:59.058Z,63.59
2019-02-06T16:30:00.317Z,63.10
2019-02-06T16:35:45.474Z,64.40
2019-02-06T16:41:20.324Z,65.26
2019-02-06T16:47:23.242Z,63.83
2019-02-06T16:53:10.390Z,64.54
2019-02-06T16:58:45.974Z,64.25
2019-02-06T17:04:16.231Z,65.03
2019-02-06T17:10:15.995Z,65.80
2019-02-06T17:16:02.063Z,65.02
2019-02-06T17:21:52.238Z,67.58
2019-02-06T17:27:27.533Z,66.26
2019-02-06T17:33:13.110Z,65.12
2019-02-06T17:39:09.372Z,67.47
2019-02-06T17:44:57.850Z,64.18
2019-02-06T17:50:51.004Z,64.64
2019-02-06T17:56:05.642Z,65.26
2019-02-06T18:01:40.540Z,64.00
2019-02-06T18:06:50.232Z,64.74
2019-02-06T18:12:14.158Z,64.02
2019-02-06T18:17:24.487Z,64.17
2019-02-06T18:22:46.404Z,63.88
2019-02-06T18:27:55.113Z,64.04
2019-02-06T18:33:11.560Z,63.90
2019-02-06T18:38:25.050Z,63.60
2019-02-06T18:43:46.642Z,63.84
2019-02-06T18:48:56.079Z,65.50
2019-02-06T18:54:02.263Z,64.83
2019-02-06T18:59:17.822Z,63.93
2019-02-06T19:05:16.069Z,63.24
2019-02-06T19:10:23.521Z,63.52
2019-02-06T19:15:58.147Z,63.99
2019-02-06T19:21:19.278Z,62.58
2019-02-06T19:26:40.097Z,61.62
2019-02-06T19:31:45.952Z,61.93
2019-02-06T19:37:16.148Z,62.48
2019-02-06T19:42:25.350Z,64.12
2019-02-06T19:47:41.700Z,63.27
2019-02-06T19:53:04.050Z,65.09
2019-02-06T19:58:19.030Z,63.96
2019-02-06T20:03:26.437Z,64.84
2019-02-06T20:08:49.214Z,64.57
2019-02-06T20:14:20.397Z,65.35
2019-02-06T20:19:25.763Z,66.87
2019-02-06T20:24:33.128Z,67.60
2019-02-06T20:29:51.439Z,67.33
2019-02-06T20:35:07.120Z,67.18
2019-02-06T20:40:19.384Z,66.74
2019-02-06T20:45:42.204Z,67.15
2019-02-06T20:50:45.540Z,67.66
2019-02-06T20:55:50.840Z,66.48
2019-02-06T21:01:00.948Z,67.06
2019-02-06T21:06:08.251Z,67.90
2019-02-06T21:11:13.915Z,66.33
2019-02-06T21:16:30.073Z,67.05
2019-02-06T21:21:37.286Z,68.44
2019-02-06T21:26:48.013Z,67.64
2019-02-06T21:31:53.834Z,68.04
2019-02-06T21:36:59.279Z,69.17
2019-02-06T21:42:04.679Z,68.21
2019-02-06T21:47:09.846Z,69.01
2019-02-06T21:52:18.096Z,68.64
2019-02-06T21:57:27.777Z,68.74
2019-02-06T22:02:34.063Z,68.40
2019-02-06T22:07:41.466Z,68.59
2019-02-06T22:12:47.791Z,69.37
2019-02-06T22:17:54.041Z,68.49
2019-02-06T22:23:00.610Z,67.58
2019-02-06T22:28:08.460Z,68.15
2019-02-06T22:33:14.298Z,67.65
2019-02-06T22:38:19.471Z,68.21
2019-02-06T22:43:25.180Z,66.87
2019-02-06T22:48:30.273Z,67.56
2019-02-06T22:53:41.475Z,65.75
2019-02-06T22:58:46.669Z,66.73
2019-02-06T23:03:56.586Z,65.66
2019-02-06T23:09:06.451Z,65.16
2019-02-06T23:14:17.535Z,64.42
2019-02-06T23:19:19.240Z,63.73
2019-02-06T23:24:27.606Z,63.64
2019-02-06T23:29:34.862Z,63.90
2019-02-06T23:34:42.626Z,63.06
2019-02-06T23:39:51.444Z,64.22
2019-02-06T23:44:57.090Z,63.44
2019-02-06T23:50:02.134Z,63.59
2019-02-06T23:55:07.510Z,63.50
